Time;durP1;ratioP1;P1;durP2;ratioP2;P2;SDS_P1;SDS_P2;PMS_P1;PMS_P2;Temp;Humidity;BMP_temperature;BMP_pressure;BME280_temperature;BME280_humidity;BME280_pressure;Samples;Min_cycle;Max_cycle;Signal;HPM_P1;HPM_P2
2021/12/09 00:00:59;;;;;;;10.95;1.80;;;;;;;4.67;69.33;98810.78;6114501;23;20018;-79
2021/12/09 00:04:09;;;;;;;14.38;1.40;;;;;;;4.75;70.17;98825.69;6104443;23;19994;-81
2021/12/09 00:07:54;;;;;;;;;;;;;;;;;;;;;
2021/12/09 00:10:02;;;;;;;14.77;1.55;;;;;;;4.82;70.14;98841.69;5998436;24;20012;-79
2021/12/09 00:13:14;;;;;;;15.23;1.65;;;;;;;4.84;69.63;98828.69;6001705;23;20098;-83
2021/12/09 00:15:43;;;;;;;28.83;3.47;;;;;;;4.58;69.32;98796.13;5996218;23;20067;-81
2021/12/09 00:18:59;;;;;;;7.10;1.42;;;;;;;4.77;69.97;98830.84;6029728;23;20004;-82
2021/12/09 00:21:38;;;;;;;10.13;1.63;;;;;;;4.76;69.38;98849.00;6011419;23;19999;-83
2021/12/09 00:24:54;;;;;;;2.25;0.93;;;;;;;4.79;69.43;98853.06;6062131;23;20012;-83
2021/12/09 00:27:48;;;;;;;8.63;1.42;;;;;;;4.74;70.38;98842.22;6061818;23;19994;-84
2021/12/09 00:34:34;;;;;;;5.70;1.20;;;;;;;4.62;69.26;98826.22;6004450;23;20011;-82
2021/12/09 00:43:07;;;;;;;7.68;1.63;;;;;;;4.55;70.60;98842.69;5976949;24;20098;-81
2021/12/09 00:46:13;;;;;;;;;;;;;;;;;;;;;
2021/12/09 00:49:03;;;;;;;6.43;1.07;;;;;;;4.41;69.59;98841.53;6084431;23;19904;-83
2021/12/09 00:52:30;;;;;;;;;;;;;;;;;;;;;
2021/12/09 00:55:11;;;;;;;;;;;;;;;;;;;;;
2021/12/09 00:57:41;;;;;;;11.40;1.67;;;;;;;4.28;71.04;98849.06;6060862;23;20026;-82
2021/12/09 01:00:31;;;;;;;4.28;1.05;;;;;;;4.43;70.50;98878.09;6034158;23;19999;-82
2021/12/09 01:03:16;;;;;;;8.13;1.48;;;;;;;4.45;71.41;98880.53;6059925;23;20014;-81
2021/12/09 01:06:36;;;;;;;;;;;;;;;;;;;;;
2021/12/09 01:09:12;;;;;;;6.40;1.67;;;;;;;4.32;71.27;98852.06;6046826;23;19995;-81
2021/12/09 01:11:47;;;;;;;3.72;1.55;;;;;;;4.43;70.70;98877.31;6073269;23;20015;-81
2021/12/09 01:14:13;;;;;;;6.25;1.10;;;;;;;4.43;71.01;98871.88;6135014;23;20571;-81
2021/12/09 01:17:00;;;;;;;8.52;1.90;;;;;;;4.63;70.28;98904.47;6149869;23;20028;-79
2021/12/09 01:19:52;;;;;;;;;;;;;;;;;;;;;
2021/12/09 01:22:52;;;;;;;6.72;1.25;;;;;;;4.91;70.66;98910.53;6152907;23;20009;-81
2021/12/09 01:25:49;;;;;;;7.80;1.58;;;;;;;4.99;70.47;98912.72;6138875;23;20016;-81
2021/12/09 01:28:46;;;;;;;5.40;1.20;;;;;;;5.14;69.44;98919.25;6179762;23;20001;-81
2021/12/09 01:31:19;;;;;;;11.18;1.13;;;;;;;5.17;69.76;98919.56;6206750;23;20028;-78
2021/12/09 01:34:15;;;;;;;6.65;1.63;;;;;;;5.15;68.79;98926.31;6183519;23;20007;-78
2021/12/09 01:36:59;;;;;;;8.63;2.13;;;;;;;5.05;69.46;98910.84;6165928;23;19993;-79
2021/12/09 01:39:34;;;;;;;6.68;2.05;;;;;;;4.98;68.91;98921.94;6181717;23;20001;-78
2021/12/09 01:42:08;;;;;;;10.35;1.35;;;;;;;4.83;69.82;98905.63;6183592;23;20019;-76
2021/12/09 01:44:56;;;;;;;12.70;1.83;;;;;;;4.90;69.22;98898.06;6157490;23;20056;-77
2021/12/09 01:47:22;;;;;;;5.40;1.70;;;;;;;5.03;69.93;98930.06;6157559;23;20120;-78
2021/12/09 01:49:55;;;;;;;10.65;1.92;;;;;;;4.89;70.24;98907.25;6177492;23;20008;-79
2021/12/09 01:52:25;;;;;;;6.90;1.38;;;;;;;4.92;69.17;98923.00;6154115;23;20069;-77
2021/12/09 01:54:51;;;;;;;11.65;1.92;;;;;;;4.88;70.31;98921.91;6176723;23;20005;-76
2021/12/09 01:57:18;;;;;;;14.48;2.00;;;;;;;4.92;69.81;98928.41;6200180;23;20005;-79
2021/12/09 01:59:44;;;;;;;5.80;1.17;;;;;;;4.79;70.29;98915.34;6176197;23;20005;-79
2021/12/09 02:02:09;;;;;;;4.35;1.55;;;;;;;4.82;70.42;98931.06;6177298;23;20572;-79
2021/12/09 02:04:35;;;;;;;13.60;2.05;;;;;;;4.80;70.53;98941.34;6175499;23;20005;-78
2021/12/09 02:07:03;;;;;;;16.38;1.65;;;;;;;4.74;70.15;98931.59;6153040;23;20060;-78
2021/12/09 02:10:22;;;;;;;16.02;1.55;;;;;;;4.78;70.04;98940.81;6155189;23;20004;-78
2021/12/09 02:13:08;;;;;;;17.83;1.90;;;;;;;4.68;71.02;98928.84;6223980;23;20031;-80
2021/12/09 02:15:35;;;;;;;18.13;1.90;;;;;;;4.76;69.91;98945.66;6210075;23;20012;-79
2021/12/09 02:18:04;;;;;;;7.70;1.48;;;;;;;4.71;70.21;98933.72;6236467;23;19981;-82
2021/12/09 02:20:47;;;;;;;20.80;3.40;;;;;;;4.90;70.14;98955.75;6212125;23;20012;-78
2021/12/09 02:23:23;;;;;;;5.55;1.52;;;;;;;4.93;69.38;98946.28;6211761;23;20035;-80
2021/12/09 02:25:58;;;;;;;8.60;1.10;;;;;;;4.72;69.87;98924.53;6188186;23;20233;-78
2021/12/09 02:28:32;;;;;;;9.52;1.38;;;;;;;4.67;69.25;98932.66;6183834;23;20011;-73
2021/12/09 02:31:20;;;;;;;15.35;1.50;;;;;;;4.76;70.03;98945.66;6200739;23;20000;-74
2021/12/09 02:33:56;;;;;;;;;;;;;;;;;;;;;
2021/12/09 02:36:35;;;;;;;15.85;1.52;;;;;;;4.75;69.59;98960.31;6194778;23;20352;-74
2021/12/09 02:39:04;;;;;;;18.50;1.83;;;;;;;4.48;70.10;98923.31;6194265;23;20015;-74
2021/12/09 02:41:37;;;;;;;9.02;1.40;;;;;;;4.74;70.43;98954.06;6198118;23;19996;-76
2021/12/09 02:44:11;;;;;;;10.55;1.73;;;;;;;4.70;69.64;98951.06;6198312;23;20016;-75
2021/12/09 02:46:38;;;;;;;15.98;2.10;;;;;;;4.60;69.76;98926.66;6191861;23;20008;-72
2021/12/09 02:49:26;;;;;;;;;;;;;;;;;;;;;
2021/12/09 02:52:01;;;;;;;14.30;2.00;;;;;;;4.70;70.56;98964.63;6192537;23;20036;-72
2021/12/09 02:54:28;;;;;;;14.27;1.25;;;;;;;4.68;70.12;98960.53;6190566;23;20008;-72
2021/12/09 02:56:57;;;;;;;13.80;1.52;;;;;;;4.61;69.71;98958.03;6168129;23;20009;-73
2021/12/09 02:59:24;;;;;;;15.07;2.35;;;;;;;4.68;70.47;98966.75;6192773;23;20004;-78
2021/12/09 03:01:59;;;;;;;5.45;1.33;;;;;;;4.79;70.20;98955.97;6181893;23;20068;-79
2021/12/09 03:04:58;;;;;;;;;;;;;;;;;;;;;
2021/12/09 03:07:47;;;;;;;8.25;1.35;;;;;;;4.91;68.89;98959.28;6207404;23;20013;-79
2021/12/09 03:10:38;;;;;;;15.25;2.00;;;;;;;4.90;69.16;98963.88;6230983;23;20008;-77
2021/12/09 03:13:10;;;;;;;16.80;1.48;;;;;;;4.81;68.72;98937.56;6208074;23;20036;-77
2021/12/09 03:15:40;;;;;;;9.82;1.10;;;;;;;4.79;67.69;98912.63;6208938;23;20001;-78
2021/12/09 03:18:10;;;;;;;9.75;1.20;;;;;;;5.13;67.79;98958.28;6206633;23;19997;-79
2021/12/09 03:20:47;;;;;;;14.73;1.33;;;;;;;5.12;67.81;98948.53;6206477;23;20009;-78
2021/12/09 03:23:33;;;;;;;10.90;1.38;;;;;;;5.32;66.89;98975.69;6182917;23;19999;-78
2021/12/09 03:26:03;;;;;;;13.32;1.17;;;;;;;5.30;65.95;98964.31;6189238;23;20016;-78
2021/12/09 03:28:29;;;;;;;19.35;1.52;;;;;;;5.28;66.34;98958.31;6205912;23;20001;-78
2021/12/09 03:31:21;;;;;;;7.60;1.85;;;;;;;5.49;66.59;98971.94;6204892;23;19993;-79
2021/12/09 03:33:51;;;;;;;2.53;1.20;;;;;;;5.50;65.06;98981.69;6206938;23;20016;-78
2021/12/09 03:36:19;;;;;;;3.40;1.27;;;;;;;5.55;64.89;98995.28;6207036;23;20043;-79
2021/12/09 03:38:48;;;;;;;15.70;2.00;;;;;;;5.48;65.41;98978.44;6163939;23;20021;-75
2021/12/09 03:41:14;;;;;;;7.63;1.73;;;;;;;5.56;65.01;98984.16;6140407;23;20008;-76
2021/12/09 03:43:39;;;;;;;7.93;0.88;;;;;;;5.36;64.80;98965.94;6138801;23;20368;-74
2021/12/09 03:46:12;;;;;;;13.40;1.17;;;;;;;5.48;64.36;98981.16;6167114;23;20006;-74
2021/12/09 03:48:41;;;;;;;4.63;1.50;;;;;;;5.45;64.51;98968.13;6142991;23;20012;-78
2021/12/09 03:51:07;;;;;;;3.15;0.98;;;;;;;5.42;64.12;98969.47;6151921;23;20005;-76
2021/12/09 03:53:36;;;;;;;13.77;1.20;;;;;;;5.57;64.53;98993.09;6150542;23;20010;-74
2021/12/09 03:56:09;;;;;;;7.63;1.13;;;;;;;5.49;64.36;98980.91;6142174;23;20028;-75
2021/12/09 03:58:44;;;;;;;14.85;1.20;;;;;;;5.55;64.52;99006.94;6168505;23;20001;-75
2021/12/09 04:01:17;;;;;;;5.20;0.90;;;;;;;5.57;65.06;99009.38;6167806;23;20681;-75
2021/12/09 04:03:43;;;;;;;12.82;1.10;;;;;;;5.33;65.38;98987.34;6142432;23;20005;-74
2021/12/09 04:06:09;;;;;;;11.65;1.92;;;;;;;5.25;65.72;98967.00;6117552;23;20039;-74
2021/12/09 04:08:35;;;;;;;8.90;1.38;;;;;;;5.35;65.12;98991.41;6117412;23;20309;-75
2021/12/09 04:11:01;;;;;;;5.35;1.38;;;;;;;5.40;65.13;98999.56;6165277;23;20005;-74
2021/12/09 04:13:34;;;;;;;8.18;2.50;;;;;;;5.38;65.00;99003.63;6170358;23;20005;-75
2021/12/09 04:16:11;;;;;;;7.75;1.08;;;;;;;5.47;65.18;99031.03;6149672;23;20009;-76
2021/12/09 04:18:49;;;;;;;7.82;1.58;;;;;;;5.46;66.05;99029.41;6150905;23;20016;-77
2021/12/09 04:21:35;;;;;;;;;;;;;;;;;;;;;
2021/12/09 04:24:07;;;;;;;;;;;;;;;5.40;65.11;99026.69;6168041;23;20364;-75
2021/12/09 04:26:37;;;;;;;6.22;1.88;;;;;;;5.11;66.40;98995.66;6144031;23;19905;-74
2021/12/09 04:29:13;;;;;;;;;;;;;;;;;;;;;
2021/12/09 04:31:54;;;;;;;;;;;;;;;;;;;;;
2021/12/09 04:34:20;;;;;;;16.33;1.55;;;;;;;4.95;66.34;99006.44;6175146;23;20002;-75
2021/12/09 04:36:49;;;;;;;11.95;2.55;;;;;;;5.04;66.21;99034.66;6149496;23;20010;-77
2021/12/09 04:39:22;;;;;;;5.53;1.10;;;;;;;4.95;67.00;99021.88;6166155;23;20017;-75
2021/12/09 04:41:56;;;;;;;5.35;0.85;;;;;;;5.11;66.54;99055.28;6165054;23;20009;-75
2021/12/09 04:44:23;;;;;;;9.32;1.35;;;;;;;4.82;67.35;99009.59;6166382;23;20305;-75
2021/12/09 04:46:52;;;;;;;8.48;1.20;;;;;;;5.00;66.76;99044.38;6171138;23;20025;-79
2021/12/09 04:49:26;;;;;;;11.23;1.35;;;;;;;4.93;67.55;99054.66;6178445;23;20001;-79
2021/12/09 04:51:57;;;;;;;4.50;0.75;;;;;;;4.86;67.06;99048.63;6153970;23;20016;-81
2021/12/09 04:54:24;;;;;;;6.57;1.00;;;;;;;4.92;67.31;99063.03;6175035;23;20016;-80
2021/12/09 04:57:00;;;;;;;;;;;;;;;;;;;;;
2021/12/09 04:59:26;;;;;;;7.20;1.08;;;;;;;4.61;67.40;99025.75;6177250;23;20001;-80
2021/12/09 05:02:00;;;;;;;2.00;1.00;;;;;;;4.66;67.02;99039.31;6174679;23;19996;-80
2021/12/09 05:04:34;;;;;;;9.77;2.20;;;;;;;4.84;67.98;99067.06;6172543;23;20017;-78
2021/12/09 05:07:07;;;;;;;6.45;1.60;;;;;;;4.72;68.10;99064.56;6173964;23;20013;-78
2021/12/09 05:09:39;;;;;;;8.23;1.08;;;;;;;4.66;67.49;99054.75;6172784;23;20017;-77
2021/12/09 05:12:06;;;;;;;4.93;0.85;;;;;;;4.77;68.58;99077.31;6146358;23;20013;-76
2021/12/09 05:14:40;;;;;;;8.32;1.23;;;;;;;4.59;68.76;99054.16;6172092;23;20032;-77
2021/12/09 05:17:06;;;;;;;9.98;1.38;;;;;;;4.76;68.35;99073.78;6174004;23;20001;-79
2021/12/09 05:19:37;;;;;;;2.83;0.50;;;;;;;4.66;68.26;99061.00;6149854;23;20323;-80
2021/12/09 05:22:32;;;;;;;2.78;1.00;;;;;;;4.58;67.24;99039.81;6172978;23;20002;-80
2021/12/09 05:24:52;;;;;;;10.40;1.65;;;;;;;4.60;67.56;99048.50;6172401;23;20009;-78
2021/12/09 05:27:20;;;;;;;5.05;0.80;;;;;;;4.65;68.19;99043.09;6173016;23;20005;-78
2021/12/09 05:30:02;;;;;;;;;;;;;;;;;;;;;
2021/12/09 05:32:31;;;;;;;8.10;0.90;;;;;;;4.61;67.58;99027.63;6175503;23;20420;-79
2021/12/09 05:35:11;;;;;;;10.45;1.40;;;;;;;4.59;67.29;99025.19;6173085;23;20018;-81
2021/12/09 05:37:47;;;;;;;;;;;;;;;;;;;;;
2021/12/09 05:40:15;;;;;;;11.25;1.45;;;;;;;4.81;68.18;99056.75;6174340;23;20002;-81
2021/12/09 05:42:49;;;;;;;2.10;0.88;;;;;;;4.72;67.60;99057.22;6174727;23;20067;-79
2021/12/09 05:45:31;;;;;;;7.15;1.10;;;;;;;4.84;67.57;99072.47;6173422;23;20013;-80
2021/12/09 05:48:07;;;;;;;;;;;;;;;;;;;;;
2021/12/09 05:50:33;;;;;;;2.45;0.98;;;;;;;4.68;67.71;99042.56;6155063;23;20084;-73
2021/12/09 05:52:59;;;;;;;11.55;1.30;;;;;;;4.75;67.55;99069.44;6128876;23;20018;-74
2021/12/09 05:55:25;;;;;;;5.32;1.23;;;;;;;4.65;66.81;99064.75;6151462;23;20017;-73
2021/12/09 05:57:55;;;;;;;5.32;0.57;;;;;;;4.53;67.28;99050.59;6153617;23;20005;-74
2021/12/09 06:00:21;;;;;;;17.38;1.13;;;;;;;4.59;68.47;99071.22;6154291;23;20008;-73
2021/12/09 06:02:49;;;;;;;7.43;1.00;;;;;;;4.45;68.38;99059.19;6153556;23;20009;-74
2021/12/09 06:05:24;;;;;;;2.47;0.60;;;;;;;4.57;68.49;99062.56;6175371;23;20037;-74
2021/12/09 06:07:52;;;;;;;3.63;1.27;;;;;;;4.55;67.69;99060.06;6151488;23;20108;-74
2021/12/09 06:10:20;;;;;;;8.73;1.27;;;;;;;4.50;68.49;99070.88;6126801;23;20424;-74
2021/12/09 06:12:45;;;;;;;13.80;0.95;;;;;;;4.69;68.95;99092.97;6148569;23;20025;-75
2021/12/09 06:15:11;;;;;;;4.00;1.13;;;;;;;4.67;68.97;99095.13;6155768;23;20016;-75
2021/12/09 06:17:36;;;;;;;6.75;0.93;;;;;;;4.69;68.49;99092.97;6157710;23;20013;-74
2021/12/09 06:20:03;;;;;;;3.20;0.88;;;;;;;4.75;68.21;99090.31;6156363;23;20013;-72
2021/12/09 06:22:31;;;;;;;3.40;1.10;;;;;;;4.78;68.06;99085.16;6183688;23;20010;-75
2021/12/09 06:25:00;;;;;;;1.20;0.85;;;;;;;4.71;68.11;99077.25;6158567;23;20025;-74
2021/12/09 06:27:25;;;;;;;11.57;1.30;;;;;;;4.77;68.25;99085.44;6158586;23;20466;-75
2021/12/09 06:29:51;;;;;;;1.90;0.80;;;;;;;4.77;68.67;99077.31;6161651;23;20014;-74
2021/12/09 06:32:16;;;;;;;4.95;0.85;;;;;;;4.78;68.85;99073.53;6144800;23;20077;-74
2021/12/09 06:34:49;;;;;;;7.90;1.00;;;;;;;4.78;68.59;99078.94;6172237;23;20029;-73
2021/12/09 06:37:15;;;;;;;1.83;0.68;;;;;;;4.69;69.01;99084.03;6144069;23;20032;-74
2021/12/09 06:39:41;;;;;;;2.88;0.52;;;;;;;4.73;69.26;99098.66;6161355;23;20022;-74
2021/12/09 06:42:10;;;;;;;8.38;1.55;;;;;;;4.62;69.75;99081.53;6137282;23;20021;-75
2021/12/09 06:44:35;;;;;;;12.30;1.25;;;;;;;4.70;70.06;99094.59;6158975;23;20013;-73
2021/12/09 06:47:01;;;;;;;6.72;1.05;;;;;;;4.66;69.58;99090.78;6159380;23;20428;-73
2021/12/09 06:49:27;;;;;;;16.17;1.30;;;;;;;4.71;69.95;99107.03;6133697;23;20001;-74
2021/12/09 06:51:52;;;;;;;5.47;1.10;;;;;;;4.74;69.97;99104.91;6160275;23;20009;-74
2021/12/09 06:54:18;;;;;;;10.60;1.45;;;;;;;4.78;69.97;99122.28;6160926;23;20006;-73
2021/12/09 06:56:44;;;;;;;9.00;1.95;;;;;;;4.72;69.84;99130.34;6159518;23;20009;-73
2021/12/09 06:59:09;;;;;;;11.90;0.98;;;;;;;4.78;69.91;99130.41;6159961;23;20025;-74
2021/12/09 07:01:36;;;;;;;10.23;1.25;;;;;;;4.74;70.41;99123.88;6158659;23;20010;-73
2021/12/09 07:04:02;;;;;;;6.22;1.02;;;;;;;4.82;70.10;99134.19;6159896;23;20005;-74
2021/12/09 07:06:28;;;;;;;7.68;0.90;;;;;;;4.83;69.46;99138.56;6159093;23;20064;-73
2021/12/09 07:08:59;;;;;;;14.85;1.85;;;;;;;4.73;70.74;99139.28;6109536;23;20009;-74
2021/12/09 07:11:24;;;;;;;17.02;1.27;;;;;;;4.78;70.40;99128.50;6158595;23;20036;-74
2021/12/09 07:13:57;;;;;;;10.43;1.17;;;;;;;4.82;70.67;99140.47;6182146;23;20013;-72
2021/12/09 07:16:23;;;;;;;15.70;1.20;;;;;;;4.84;70.23;99149.13;6160132;23;20009;-73
2021/12/09 07:18:58;;;;;;;5.45;0.98;;;;;;;4.85;70.07;99147.25;6160273;23;20024;-74
2021/12/09 07:21:24;;;;;;;2.55;0.95;;;;;;;4.84;71.00;99151.03;6157820;23;20006;-75
2021/12/09 07:23:49;;;;;;;11.32;1.40;;;;;;;4.83;71.13;99157.50;6157418;23;20072;-75
2021/12/09 07:26:15;;;;;;;10.68;0.70;;;;;;;4.77;70.97;99153.13;6159454;23;20005;-78
2021/12/09 07:28:41;;;;;;;5.07;1.15;;;;;;;4.79;70.39;99156.41;6159327;23;20012;-73
2021/12/09 07:31:16;;;;;;;13.07;1.45;;;;;;;4.83;70.90;99162.94;6181881;23;20013;-72
2021/12/09 07:33:42;;;;;;;4.53;1.00;;;;;;;4.84;71.09;99159.16;6159022;23;20036;-74
2021/12/09 07:36:08;;;;;;;12.43;1.30;;;;;;;4.83;70.10;99154.81;6185496;23;20021;-74
2021/12/09 07:38:34;;;;;;;2.33;0.85;;;;;;;4.81;70.60;99151.56;6186624;23;20076;-79
2021/12/09 07:41:00;;;;;;;4.72;1.02;;;;;;;4.84;70.41;99143.72;6160851;23;20006;-79
2021/12/09 07:43:25;;;;;;;3.83;0.85;;;;;;;4.79;70.47;99150.97;6164395;23;20009;-80
2021/12/09 07:45:51;;;;;;;8.75;0.90;;;;;;;4.73;71.09;99142.00;6139736;23;20013;-79
2021/12/09 07:48:17;;;;;;;2.08;0.80;;;;;;;4.74;70.55;99159.06;6160506;23;20002;-77
2021/12/09 07:50:42;;;;;;;1.23;0.40;;;;;;;4.75;70.54;99156.09;6138504;23;20009;-80
2021/12/09 07:53:09;;;;;;;3.90;0.65;;;;;;;4.71;71.06;99155.00;6160580;23;20013;-78
2021/12/09 07:55:34;;;;;;;4.35;0.93;;;;;;;4.72;71.17;99162.03;6160717;23;20005;-78
2021/12/09 07:58:01;;;;;;;9.30;0.60;;;;;;;4.74;70.31;99162.59;6155189;23;20033;-81
2021/12/09 08:00:31;;;;;;;0.50;0.30;;;;;;;4.82;70.63;99166.72;6155520;23;20067;-79
2021/12/09 08:02:58;;;;;;;2.83;0.63;;;;;;;4.85;70.12;99171.63;6159706;23;20420;-79
2021/12/09 08:05:26;;;;;;;1.20;0.73;;;;;;;4.82;70.48;99172.13;6133088;23;20009;-77
2021/12/09 08:07:51;;;;;;;0.85;0.70;;;;;;;4.78;69.88;99176.44;6162439;23;20006;-81
2021/12/09 08:10:18;;;;;;;4.40;0.75;;;;;;;4.78;69.73;99179.16;6107317;23;20013;-79
2021/12/09 08:12:44;;;;;;;0.80;0.65;;;;;;;4.74;69.68;99180.75;6133250;23;20014;-77
2021/12/09 08:15:15;;;;;;;2.22;0.93;;;;;;;4.65;70.02;99173.06;6155826;23;20041;-78
2021/12/09 08:20:18;;;;;;;;;;;;;;;;;;;;;
2021/12/09 08:22:47;;;;;;;3.40;0.90;;;;;;;4.69;69.87;99185.03;6156479;23;20052;-78
2021/12/09 08:25:14;;;;;;;2.10;0.47;;;;;;;4.61;70.68;99174.66;6129598;23;20009;-78
2021/12/09 08:27:43;;;;;;;1.65;0.60;;;;;;;4.66;70.18;99174.72;6154115;23;20432;-77
2021/12/09 08:30:12;;;;;;;11.65;0.80;;;;;;;4.68;69.94;99183.41;6127959;23;20009;-77
2021/12/09 08:32:38;;;;;;;2.58;0.75;;;;;;;4.77;70.72;99188.34;6155170;23;20520;-76
2021/12/09 08:35:04;;;;;;;2.00;0.73;;;;;;;4.81;70.19;99198.41;6154668;23;20010;-76
2021/12/09 08:37:30;;;;;;;5.00;0.68;;;;;;;4.81;69.59;99203.00;6154552;23;20017;-79
2021/12/09 08:40:00;;;;;;;4.63;1.10;;;;;;;4.87;70.26;99205.50;6156464;23;20013;-80
2021/12/09 08:42:29;;;;;;;4.95;0.60;;;;;;;4.86;70.06;99203.03;6151500;23;20041;-79
2021/12/09 08:44:57;;;;;;;5.03;0.65;;;;;;;4.93;69.72;99203.66;6130566;23;20012;-78
2021/12/09 08:47:25;;;;;;;11.35;1.83;;;;;;;4.85;69.76;99198.72;6150156;23;20446;-79
2021/12/09 08:49:50;;;;;;;3.47;0.95;;;;;;;4.87;69.64;99207.41;6151965;23;20653;-80
2021/12/09 08:52:20;;;;;;;4.32;1.88;;;;;;;4.87;70.16;99208.19;6140262;23;20014;-75
2021/12/09 08:54:51;;;;;;;6.03;0.98;;;;;;;4.85;70.21;99199.53;6152554;23;20005;-75
2021/12/09 08:57:19;;;;;;;6.30;0.90;;;;;;;4.82;70.38;99185.66;6156568;23;20313;-77
2021/12/09 08:59:44;;;;;;;3.13;1.10;;;;;;;4.86;69.52;99189.50;6131109;23;20175;-76
2021/12/09 09:02:25;;;;;;;7.20;1.20;;;;;;;4.99;69.84;99199.09;6153299;23;20013;-77
2021/12/09 09:04:57;;;;;;;3.38;0.93;;;;;;;4.92;69.80;99182.22;6153902;23;20001;-77
2021/12/09 09:07:25;;;;;;;2.30;0.70;;;;;;;4.86;69.50;99162.41;6157015;23;20076;-76
2021/12/09 09:09:58;;;;;;;5.95;0.98;;;;;;;4.98;69.29;99179.31;6153219;23;20346;-78
2021/12/09 09:12:23;;;;;;;7.55;1.45;;;;;;;4.99;69.69;99178.22;6128393;23;20431;-77
2021/12/09 09:14:49;;;;;;;2.60;0.70;;;;;;;5.15;69.27;99191.88;6152940;23;20020;-76
2021/12/09 09:17:14;;;;;;;3.45;0.70;;;;;;;5.12;68.91;99181.56;6156551;23;20013;-76
2021/12/09 09:19:58;;;;;;;5.20;1.02;;;;;;;5.09;68.63;99166.66;6154792;23;20006;-77
2021/12/09 09:22:25;;;;;;;3.85;0.60;;;;;;;5.18;68.95;99175.09;6154376;23;20084;-80
2021/12/09 09:25:00;;;;;;;8.65;1.88;;;;;;;5.23;69.04;99178.66;6128819;23;20089;-80
2021/12/09 09:27:25;;;;;;;3.65;1.05;;;;;;;5.35;69.26;99181.19;6157305;23;20010;-79
2021/12/09 09:29:51;;;;;;;7.22;1.00;;;;;;;5.25;68.66;99164.84;6156366;23;20496;-77
2021/12/09 09:32:19;;;;;;;3.00;0.85;;;;;;;5.32;68.29;99157.31;6126986;23;20443;-78
2021/12/09 09:34:45;;;;;;;10.63;1.52;;;;;;;5.40;68.81;99164.97;6131147;23;20021;-79
2021/12/09 09:37:10;;;;;;;5.20;0.85;;;;;;;5.62;68.84;99179.44;6156912;23;20336;-81
2021/12/09 09:39:43;;;;;;;1.33;0.65;;;;;;;5.62;68.08;99163.97;6132430;23;20025;-78
2021/12/09 09:42:58;;;;;;;3.50;1.00;;;;;;;5.84;68.33;99192.81;6159118;23;20005;-78
2021/12/09 09:45:19;;;;;;;7.80;0.70;;;;;;;5.81;68.25;99163.50;6170204;23;20040;-79
2021/12/09 09:48:18;;;;;;;;;;;;;;;;;;;;;
2021/12/09 09:51:01;;;;;;;3.05;0.60;;;;;;;6.21;67.21;99186.47;6174738;23;20013;-78
2021/12/09 09:53:34;;;;;;;3.53;0.82;;;;;;;6.32;67.35;99163.69;6171144;23;20001;-74
2021/12/09 09:56:00;;;;;;;0.98;0.50;;;;;;;7.15;67.46;99178.13;6172069;23;20009;-81
2021/12/09 09:58:33;;;;;;;4.28;1.05;;;;;;;8.08;66.21;99162.31;6172753;23;20006;-79
2021/12/09 10:01:02;;;;;;;2.35;0.60;;;;;;;8.93;64.21;99178.69;6144349;23;20036;-80
2021/12/09 10:04:31;;;;;;;;;;;;;;;;;;;;;
2021/12/09 10:07:06;;;;;;;2.70;0.80;;;;;;;10.65;58.89;99159.72;6157643;23;20027;-79
2021/12/09 10:09:34;;;;;;;1.25;0.60;;;;;;;11.32;59.12;99177.75;6165237;23;20093;-78
2021/12/09 10:12:00;;;;;;;1.58;0.65;;;;;;;11.91;56.12;99182.66;6161554;23;20024;-78
2021/12/09 10:14:33;;;;;;;3.42;0.93;;;;;;;12.42;55.92;99169.00;6161724;23;20080;-75
2021/12/09 10:17:08;;;;;;;2.13;1.15;;;;;;;13.17;54.45;99194.91;6172283;23;20017;-78
2021/12/09 10:19:40;;;;;;;1.23;1.00;;;;;;;13.81;52.63;99184.75;6163750;23;20009;-81
2021/12/09 10:22:12;;;;;;;1.25;1.05;;;;;;;14.57;50.84;99200.13;6164324;23;20005;-79
2021/12/09 10:24:42;;;;;;;4.63;0.93;;;;;;;15.06;49.17;99184.25;6164279;23;20009;-80
2021/12/09 10:27:31;;;;;;;;;;;;;;;;;;;;;
2021/12/09 10:30:12;;;;;;;5.10;1.30;;;;;;;16.05;45.69;99196.28;6167109;23;20036;-78
2021/12/09 10:32:39;;;;;;;2.50;1.38;;;;;;;16.23;43.50;99197.78;6188005;23;20068;-80
2021/12/09 10:35:20;;;;;;;6.32;1.90;;;;;;;16.43;43.99;99172.50;6163538;23;20092;-83
2021/12/09 10:38:11;;;;;;;4.03;1.35;;;;;;;16.67;41.95;99171.84;6163916;23;20074;-76
2021/12/09 10:40:36;;;;;;;3.05;1.08;;;;;;;16.68;40.47;99163.22;6188001;23;20017;-78
2021/12/09 10:43:03;;;;;;;1.17;0.60;;;;;;;16.98;40.71;99184.44;6139032;23;20090;-77
2021/12/09 10:45:39;;;;;;;3.28;1.20;;;;;;;17.25;40.59;99183.81;6189432;23;20085;-78
2021/12/09 10:48:25;;;;;;;2.17;0.95;;;;;;;17.56;39.67;99185.28;6160678;23;20021;-77
2021/12/09 10:51:24;;;;;;;3.53;1.10;;;;;;;18.11;40.22;99182.34;6189845;23;20009;-76
2021/12/09 10:53:51;;;;;;;3.95;1.05;;;;;;;18.54;39.02;99161.50;6161613;23;20008;-76
2021/12/09 10:56:31;;;;;;;3.38;0.70;;;;;;;19.20;37.71;99178.81;6160478;23;20089;-77
2021/12/09 10:58:57;;;;;;;1.77;0.60;;;;;;;19.48;37.34;99169.66;6160514;23;20006;-76
2021/12/09 11:01:26;;;;;;;6.47;1.33;;;;;;;19.93;36.58;99173.97;6161161;23;20001;-77
2021/12/09 11:04:11;;;;;;;;;;;;;;;;;;;;;
2021/12/09 11:06:58;;;;;;;6.45;1.15;;;;;;;20.14;34.63;99164.53;6157455;23;20058;-76
2021/12/09 11:09:36;;;;;;;;;;;;;;;;;;;;;
2021/12/09 11:12:37;;;;;;;2.83;1.40;;;;;;;20.99;33.39;99173.13;6162039;23;20043;-79
2021/12/09 11:15:13;;;;;;;;;;;;;;;;;;;;;
2021/12/09 11:17:42;;;;;;;2.20;0.95;;;;;;;21.26;32.39;99139.84;6162696;23;20035;-76
2021/12/09 11:20:11;;;;;;;3.10;1.20;;;;;;;21.50;31.74;99135.13;6166298;23;20010;-80
2021/12/09 11:23:04;;;;;;;4.13;0.85;;;;;;;22.04;32.40;99131.25;6169512;23;20008;-80
2021/12/09 11:25:36;;;;;;;1.98;0.50;;;;;;;22.09;30.57;99128.16;6164670;23;20006;-79
2021/12/09 11:28:28;;;;;;;2.25;0.70;;;;;;;22.70;30.43;99139.31;6160654;23;19994;-76
2021/12/09 11:31:08;;;;;;;9.35;1.20;;;;;;;22.80;28.81;99121.13;6159527;23;20341;-78
2021/12/09 11:33:42;;;;;;;1.85;1.05;;;;;;;22.76;28.99;99106.34;6162833;23;20009;-80
2021/12/09 11:36:14;;;;;;;3.95;1.58;;;;;;;23.02;28.43;99122.16;6165623;23;20005;-78
2021/12/09 11:39:18;;;;;;;10.30;1.08;;;;;;;23.27;27.89;99122.44;6167037;23;20031;-76
2021/12/09 11:41:45;;;;;;;5.45;1.00;;;;;;;23.11;27.11;99114.31;6190456;23;20019;-78
2021/12/09 11:44:15;;;;;;;2.90;1.10;;;;;;;22.97;27.26;99114.16;6175709;23;20005;-79
2021/12/09 11:46:44;;;;;;;4.82;1.33;;;;;;;22.56;27.22;99091.78;6172802;23;20057;-78
2021/12/09 11:49:13;;;;;;;5.95;1.92;;;;;;;22.45;26.75;99100.81;6175183;23;20012;-76
2021/12/09 11:51:40;;;;;;;6.88;1.40;;;;;;;22.42;28.64;99096.00;6173302;23;20013;-78
2021/12/09 11:54:07;;;;;;;1.52;1.10;;;;;;;22.61;27.97;99080.31;6163473;23;20013;-75
2021/12/09 11:56:59;;;;;;;4.28;1.20;;;;;;;22.97;27.39;99086.28;6160421;23;20347;-78
2021/12/09 12:14:08;;;;;;;1.80;0.88;;;;;;;22.45;26.92;99074.94;6135995;23;20021;-79
2021/12/09 12:20:20;;;;;;;5.15;2.53;;;;;;;20.98;29.68;99071.47;6163277;23;20012;-78
2021/12/09 12:42:29;;;;;;;;;;;;;;;;;;;;;
2021/12/09 12:47:59;;;;;;;6.45;1.85;;;;;;;19.88;31.91;99028.00;6179381;23;20017;-78
2021/12/09 12:50:33;;;;;;;6.97;1.42;;;;;;;19.17;31.80;98999.41;6171233;23;20016;-77
2021/12/09 12:56:37;;;;;;;1.88;1.55;;;;;;;16.64;35.35;98990.38;6159220;23;20021;-79
2021/12/09 12:59:33;;;;;;;;;;;;;;;;;;;;;
2021/12/09 13:03:03;;;;;;;3.92;2.05;;;;;;;14.91;38.85;98989.34;6175571;23;20021;-78
2021/12/09 13:09:17;;;;;;;5.97;1.85;;;;;;;13.53;42.03;98981.75;6162179;23;20009;-79
2021/12/09 13:12:04;;;;;;;;;;;;;;;;;;;;;
2021/12/09 13:14:34;;;;;;;3.65;1.83;;;;;;;12.54;45.64;98958.13;6173850;23;20001;-79
2021/12/09 13:17:45;;;;;;;7.88;1.70;;;;;;;12.18;46.29;98957.13;6166744;23;20009;-78
2021/12/09 13:20:41;;;;;;;2.45;0.85;;;;;;;11.84;47.35;98946.69;6168177;23;20049;-78
2021/12/09 13:23:23;;;;;;;7.65;1.42;;;;;;;11.53;48.56;98939.19;6141965;23;20095;-79
2021/12/09 13:26:29;;;;;;;5.97;1.73;;;;;;;11.30;49.30;98927.38;6169008;23;20040;-78
2021/12/09 13:29:20;;;;;;;1.25;0.88;;;;;;;11.08;49.18;98898.03;6167393;23;20001;-78
2021/12/09 13:32:15;;;;;;;1.33;0.77;;;;;;;10.95;49.60;98895.03;6167418;23;20016;-77
2021/12/09 13:34:51;;;;;;;7.28;1.58;;;;;;;10.94;49.92;98893.41;6173155;23;20088;-79
2021/12/09 13:40:24;;;;;;;3.17;1.58;;;;;;;10.87;50.92;98882.06;6174650;23;20032;-77
2021/12/09 13:46:55;;;;;;;7.80;1.35;;;;;;;10.89;51.46;98885.28;6178702;23;20052;-77
2021/12/09 13:49:18;;;;;;;2.17;1.33;;;;;;;10.93;52.03;98885.50;6163402;23;20010;-77
2021/12/09 13:52:01;;;;;;;4.78;1.30;;;;;;;10.76;52.74;98864.25;6179785;23;19997;-79
2021/12/09 13:54:33;;;;;;;5.80;1.25;;;;;;;10.61;52.75;98849.78;6166516;23;20031;-77
2021/12/09 13:57:15;;;;;;;6.13;1.98;;;;;;;10.62;53.55;98854.13;6200442;23;20012;-78